sensor_id;sensor_type;location;lat;lon;timestamp;P1;durP1;ratioP1;P2;durP2;ratioP2
23573;SDS011;11965;53.640;10.050;2022-07-19T00:02:21;8.35;;;6.05;;
23573;SDS011;11965;53.640;10.050;2022-07-19T00:04:47;9.45;;;6.40;;
23573;SDS011;11965;53.640;10.050;2022-07-19T00:07:12;9.90;;;6.78;;
23573;SDS011;11965;53.640;10.050;2022-07-19T00:09:38;9.05;;;6.38;;
23573;SDS011;11965;53.640;10.050;2022-07-19T00:12:04;9.45;;;6.85;;
23573;SDS011;11965;53.640;10.050;2022-07-19T00:14:29;9.05;;;6.55;;
23573;SDS011;11965;53.640;10.050;2022-07-19T00:16:55;11.38;;;7.30;;
23573;SDS011;11965;53.640;10.050;2022-07-19T00:19:21;10.40;;;6.60;;
23573;SDS011;11965;53.640;10.050;2022-07-19T00:21:46;9.60;;;6.97;;
23573;SDS011;11965;53.640;10.050;2022-07-19T00:24:12;9.57;;;6.30;;
23573;SDS011;11965;53.640;10.050;2022-07-19T00:26:38;8.52;;;6.40;;
23573;SDS011;11965;53.640;10.050;2022-07-19T00:29:03;9.45;;;6.30;;
23573;SDS011;11965;53.640;10.050;2022-07-19T00:31:29;9.65;;;6.43;;
23573;SDS011;11965;53.640;10.050;2022-07-19T00:33:55;10.45;;;6.80;;
23573;SDS011;11965;53.640;10.050;2022-07-19T00:36:21;10.02;;;6.38;;
23573;SDS011;11965;53.640;10.050;2022-07-19T00:38:47;7.47;;;5.97;;
23573;SDS011;11965;53.640;10.050;2022-07-19T00:41:12;8.43;;;6.25;;
23573;SDS011;11965;53.640;10.050;2022-07-19T00:43:42;10.18;;;6.40;;
23573;SDS011;11965;53.640;10.050;2022-07-19T00:46:15;9.60;;;6.05;;
23573;SDS011;11965;53.640;10.050;2022-07-19T00:48:42;10.48;;;6.78;;
23573;SDS011;11965;53.640;10.050;2022-07-19T00:51:08;9.10;;;6.32;;
23573;SDS011;11965;53.640;10.050;2022-07-19T00:53:36;8.50;;;5.95;;
23573;SDS011;11965;53.640;10.050;2022-07-19T00:56:06;10.40;;;6.22;;
23573;SDS011;11965;53.640;10.050;2022-07-19T00:58:33;8.93;;;6.00;;
23573;SDS011;11965;53.640;10.050;2022-07-19T01:01:00;9.20;;;6.15;;
23573;SDS011;11965;53.640;10.050;2022-07-19T01:03:26;9.10;;;6.70;;
23573;SDS011;11965;53.640;10.050;2022-07-19T01:05:52;9.55;;;6.50;;
23573;SDS011;11965;53.640;10.050;2022-07-19T01:08:18;11.20;;;6.45;;
23573;SDS011;11965;53.640;10.050;2022-07-19T01:10:43;9.48;;;6.35;;
23573;SDS011;11965;53.640;10.050;2022-07-19T01:13:09;8.68;;;5.95;;
23573;SDS011;11965;53.640;10.050;2022-07-19T01:15:38;9.25;;;6.18;;
23573;SDS011;11965;53.640;10.050;2022-07-19T01:18:05;8.68;;;6.18;;
23573;SDS011;11965;53.640;10.050;2022-07-19T01:20:30;9.73;;;5.90;;
23573;SDS011;11965;53.640;10.050;2022-07-19T01:22:56;9.38;;;6.18;;
23573;SDS011;11965;53.640;10.050;2022-07-19T01:25:22;10.50;;;6.80;;
23573;SDS011;11965;53.640;10.050;2022-07-19T01:27:48;9.57;;;6.47;;
23573;SDS011;11965;53.640;10.050;2022-07-19T01:30:19;8.75;;;5.93;;
23573;SDS011;11965;53.640;10.050;2022-07-19T01:32:46;9.98;;;6.78;;
23573;SDS011;11965;53.640;10.050;2022-07-19T01:35:12;9.50;;;6.45;;
23573;SDS011;11965;53.640;10.050;2022-07-19T01:37:39;11.65;;;7.22;;
23573;SDS011;11965;53.640;10.050;2022-07-19T01:40:06;8.50;;;6.30;;
23573;SDS011;11965;53.640;10.050;2022-07-19T01:42:34;12.07;;;6.72;;
23573;SDS011;11965;53.640;10.050;2022-07-19T01:45:01;10.65;;;6.72;;
23573;SDS011;11965;53.640;10.050;2022-07-19T01:47:26;8.15;;;6.00;;
23573;SDS011;11965;53.640;10.050;2022-07-19T01:49:52;10.55;;;7.30;;
23573;SDS011;11965;53.640;10.050;2022-07-19T01:52:18;8.63;;;6.72;;
23573;SDS011;11965;53.640;10.050;2022-07-19T01:54:43;9.68;;;6.60;;
23573;SDS011;11965;53.640;10.050;2022-07-19T01:57:10;12.75;;;6.70;;
23573;SDS011;11965;53.640;10.050;2022-07-19T01:59:36;9.07;;;6.72;;
23573;SDS011;11965;53.640;10.050;2022-07-19T02:02:02;8.35;;;6.22;;
23573;SDS011;11965;53.640;10.050;2022-07-19T02:04:29;8.88;;;6.47;;
23573;SDS011;11965;53.640;10.050;2022-07-19T02:06:55;11.00;;;6.30;;
23573;SDS011;11965;53.640;10.050;2022-07-19T02:09:20;11.82;;;6.78;;
23573;SDS011;11965;53.640;10.050;2022-07-19T02:11:46;8.43;;;6.40;;
23573;SDS011;11965;53.640;10.050;2022-07-19T02:14:11;8.95;;;6.57;;
23573;SDS011;11965;53.640;10.050;2022-07-19T02:16:37;8.95;;;6.07;;
23573;SDS011;11965;53.640;10.050;2022-07-19T02:19:04;9.38;;;6.68;;
23573;SDS011;11965;53.640;10.050;2022-07-19T02:21:32;9.25;;;6.75;;
23573;SDS011;11965;53.640;10.050;2022-07-19T02:23:58;10.95;;;7.13;;
23573;SDS011;11965;53.640;10.050;2022-07-19T02:26:23;10.35;;;6.50;;
23573;SDS011;11965;53.640;10.050;2022-07-19T02:28:49;10.77;;;6.55;;
23573;SDS011;11965;53.640;10.050;2022-07-19T02:31:15;8.48;;;6.10;;
23573;SDS011;11965;53.640;10.050;2022-07-19T02:33:41;9.93;;;6.45;;
23573;SDS011;11965;53.640;10.050;2022-07-19T02:36:08;9.80;;;6.63;;
23573;SDS011;11965;53.640;10.050;2022-07-19T02:38:33;8.70;;;6.20;;
23573;SDS011;11965;53.640;10.050;2022-07-19T02:40:59;8.70;;;6.70;;
23573;SDS011;11965;53.640;10.050;2022-07-19T02:43:24;8.80;;;6.30;;
23573;SDS011;11965;53.640;10.050;2022-07-19T02:45:49;11.90;;;6.40;;
23573;SDS011;11965;53.640;10.050;2022-07-19T02:48:16;7.93;;;5.93;;
23573;SDS011;11965;53.640;10.050;2022-07-19T02:50:43;9.07;;;6.50;;
23573;SDS011;11965;53.640;10.050;2022-07-19T02:53:09;8.57;;;5.95;;
23573;SDS011;11965;53.640;10.050;2022-07-19T02:55:35;9.38;;;6.18;;
23573;SDS011;11965;53.640;10.050;2022-07-19T02:58:01;11.20;;;6.65;;
23573;SDS011;11965;53.640;10.050;2022-07-19T03:00:27;9.10;;;6.20;;
23573;SDS011;11965;53.640;10.050;2022-07-19T03:02:53;9.15;;;6.35;;
23573;SDS011;11965;53.640;10.050;2022-07-19T03:05:19;7.90;;;6.18;;
23573;SDS011;11965;53.640;10.050;2022-07-19T03:07:44;9.18;;;6.32;;
23573;SDS011;11965;53.640;10.050;2022-07-19T03:10:10;10.32;;;6.70;;
23573;SDS011;11965;53.640;10.050;2022-07-19T03:12:35;10.93;;;6.45;;
23573;SDS011;11965;53.640;10.050;2022-07-19T03:15:01;11.05;;;6.43;;
23573;SDS011;11965;53.640;10.050;2022-07-19T03:17:28;8.68;;;6.30;;
23573;SDS011;11965;53.640;10.050;2022-07-19T03:19:54;9.05;;;6.38;;
23573;SDS011;11965;53.640;10.050;2022-07-19T03:22:19;9.55;;;6.53;;
23573;SDS011;11965;53.640;10.050;2022-07-19T03:24:45;10.35;;;6.78;;
23573;SDS011;11965;53.640;10.050;2022-07-19T03:27:11;8.65;;;5.97;;
23573;SDS011;11965;53.640;10.050;2022-07-19T03:29:36;9.43;;;6.32;;
23573;SDS011;11965;53.640;10.050;2022-07-19T03:32:02;9.00;;;6.15;;
23573;SDS011;11965;53.640;10.050;2022-07-19T03:34:28;9.15;;;6.53;;
23573;SDS011;11965;53.640;10.050;2022-07-19T03:36:54;9.77;;;6.28;;
23573;SDS011;11965;53.640;10.050;2022-07-19T03:39:20;9.18;;;6.38;;
23573;SDS011;11965;53.640;10.050;2022-07-19T03:41:45;9.20;;;6.70;;
23573;SDS011;11965;53.640;10.050;2022-07-19T03:44:11;9.95;;;6.50;;
23573;SDS011;11965;53.640;10.050;2022-07-19T03:46:36;8.95;;;6.40;;
23573;SDS011;11965;53.640;10.050;2022-07-19T03:49:02;9.90;;;6.25;;
23573;SDS011;11965;53.640;10.050;2022-07-19T03:51:27;9.13;;;6.72;;
23573;SDS011;11965;53.640;10.050;2022-07-19T03:53:53;10.00;;;6.70;;
23573;SDS011;11965;53.640;10.050;2022-07-19T03:56:19;13.10;;;6.75;;
23573;SDS011;11965;53.640;10.050;2022-07-19T03:58:46;9.55;;;6.18;;
23573;SDS011;11965;53.640;10.050;2022-07-19T04:01:13;9.73;;;6.40;;
23573;SDS011;11965;53.640;10.050;2022-07-19T04:03:40;9.25;;;6.25;;
23573;SDS011;11965;53.640;10.050;2022-07-19T04:06:06;9.70;;;6.57;;
23573;SDS011;11965;53.640;10.050;2022-07-19T04:08:33;9.95;;;6.47;;
23573;SDS011;11965;53.640;10.050;2022-07-19T04:10:59;8.07;;;6.05;;
23573;SDS011;11965;53.640;10.050;2022-07-19T04:13:25;11.93;;;6.80;;
23573;SDS011;11965;53.640;10.050;2022-07-19T04:15:50;10.88;;;6.18;;
23573;SDS011;11965;53.640;10.050;2022-07-19T04:18:16;9.02;;;6.45;;
23573;SDS011;11965;53.640;10.050;2022-07-19T04:20:41;9.55;;;6.97;;
23573;SDS011;11965;53.640;10.050;2022-07-19T04:23:07;10.38;;;6.70;;
23573;SDS011;11965;53.640;10.050;2022-07-19T04:25:33;9.63;;;6.30;;
23573;SDS011;11965;53.640;10.050;2022-07-19T04:27:58;9.20;;;6.22;;
23573;SDS011;11965;53.640;10.050;2022-07-19T04:30:24;10.38;;;6.63;;
23573;SDS011;11965;53.640;10.050;2022-07-19T04:32:50;9.52;;;6.72;;
23573;SDS011;11965;53.640;10.050;2022-07-19T04:35:15;9.32;;;6.40;;
23573;SDS011;11965;53.640;10.050;2022-07-19T04:37:41;8.20;;;6.53;;
23573;SDS011;11965;53.640;10.050;2022-07-19T04:40:07;8.25;;;6.22;;
23573;SDS011;11965;53.640;10.050;2022-07-19T04:42:33;9.00;;;6.50;;
23573;SDS011;11965;53.640;10.050;2022-07-19T04:44:59;8.07;;;6.13;;
23573;SDS011;11965;53.640;10.050;2022-07-19T04:47:24;8.20;;;6.40;;
23573;SDS011;11965;53.640;10.050;2022-07-19T04:49:50;7.95;;;6.13;;
23573;SDS011;11965;53.640;10.050;2022-07-19T04:52:15;7.70;;;5.82;;
23573;SDS011;11965;53.640;10.050;2022-07-19T04:54:41;9.77;;;6.40;;
23573;SDS011;11965;53.640;10.050;2022-07-19T04:57:07;9.30;;;6.55;;
23573;SDS011;11965;53.640;10.050;2022-07-19T04:59:32;9.77;;;6.90;;
23573;SDS011;11965;53.640;10.050;2022-07-19T05:01:58;11.00;;;7.28;;
23573;SDS011;11965;53.640;10.050;2022-07-19T05:04:24;9.85;;;6.57;;
23573;SDS011;11965;53.640;10.050;2022-07-19T05:06:49;9.75;;;6.53;;
23573;SDS011;11965;53.640;10.050;2022-07-19T05:09:25;9.27;;;6.47;;
23573;SDS011;11965;53.640;10.050;2022-07-19T05:11:53;8.90;;;6.25;;
23573;SDS011;11965;53.640;10.050;2022-07-19T05:14:19;9.73;;;6.82;;
23573;SDS011;11965;53.640;10.050;2022-07-19T05:16:45;8.95;;;6.55;;
23573;SDS011;11965;53.640;10.050;2022-07-19T05:19:11;9.15;;;6.22;;
23573;SDS011;11965;53.640;10.050;2022-07-19T05:21:37;10.25;;;6.32;;
23573;SDS011;11965;53.640;10.050;2022-07-19T05:24:03;9.80;;;6.80;;
23573;SDS011;11965;53.640;10.050;2022-07-19T05:26:29;10.20;;;6.82;;
23573;SDS011;11965;53.640;10.050;2022-07-19T05:28:55;9.23;;;6.45;;
23573;SDS011;11965;53.640;10.050;2022-07-19T05:31:22;10.18;;;6.78;;
23573;SDS011;11965;53.640;10.050;2022-07-19T05:33:47;7.15;;;5.85;;
23573;SDS011;11965;53.640;10.050;2022-07-19T05:36:13;11.32;;;6.72;;
23573;SDS011;11965;53.640;10.050;2022-07-19T05:38:38;11.38;;;6.68;;
23573;SDS011;11965;53.640;10.050;2022-07-19T05:41:06;9.75;;;6.38;;
23573;SDS011;11965;53.640;10.050;2022-07-19T05:43:31;10.80;;;6.93;;
23573;SDS011;11965;53.640;10.050;2022-07-19T05:45:59;9.70;;;6.68;;
23573;SDS011;11965;53.640;10.050;2022-07-19T05:48:24;12.27;;;6.57;;
23573;SDS011;11965;53.640;10.050;2022-07-19T05:50:49;10.50;;;6.85;;
23573;SDS011;11965;53.640;10.050;2022-07-19T05:53:15;11.13;;;6.93;;
23573;SDS011;11965;53.640;10.050;2022-07-19T05:55:42;10.55;;;7.15;;
23573;SDS011;11965;53.640;10.050;2022-07-19T05:58:08;13.30;;;7.30;;
23573;SDS011;11965;53.640;10.050;2022-07-19T06:00:34;12.38;;;6.43;;
23573;SDS011;11965;53.640;10.050;2022-07-19T06:02:59;11.05;;;6.35;;
23573;SDS011;11965;53.640;10.050;2022-07-19T06:05:25;9.70;;;5.85;;
23573;SDS011;11965;53.640;10.050;2022-07-19T06:07:50;11.98;;;6.80;;
23573;SDS011;11965;53.640;10.050;2022-07-19T06:10:16;9.18;;;6.30;;
23573;SDS011;11965;53.640;10.050;2022-07-19T06:12:41;10.30;;;6.13;;
23573;SDS011;11965;53.640;10.050;2022-07-19T06:15:07;8.18;;;6.20;;
23573;SDS011;11965;53.640;10.050;2022-07-19T06:17:32;11.00;;;5.93;;
23573;SDS011;11965;53.640;10.050;2022-07-19T06:19:59;10.35;;;6.05;;
23573;SDS011;11965;53.640;10.050;2022-07-19T06:22:25;8.95;;;6.22;;
23573;SDS011;11965;53.640;10.050;2022-07-19T06:24:54;9.25;;;6.22;;
23573;SDS011;11965;53.640;10.050;2022-07-19T06:27:19;8.80;;;5.35;;
23573;SDS011;11965;53.640;10.050;2022-07-19T06:29:45;7.75;;;6.28;;
23573;SDS011;11965;53.640;10.050;2022-07-19T06:32:10;6.97;;;5.32;;
23573;SDS011;11965;53.640;10.050;2022-07-19T06:34:35;10.15;;;5.85;;
23573;SDS011;11965;53.640;10.050;2022-07-19T06:37:01;7.60;;;5.50;;
23573;SDS011;11965;53.640;10.050;2022-07-19T06:39:26;9.00;;;5.97;;
23573;SDS011;11965;53.640;10.050;2022-07-19T06:41:52;10.00;;;5.80;;
23573;SDS011;11965;53.640;10.050;2022-07-19T06:44:17;8.30;;;5.70;;
23573;SDS011;11965;53.640;10.050;2022-07-19T06:46:43;9.43;;;5.78;;
23573;SDS011;11965;53.640;10.050;2022-07-19T06:49:09;9.02;;;5.60;;
23573;SDS011;11965;53.640;10.050;2022-07-19T06:51:35;10.43;;;5.88;;
23573;SDS011;11965;53.640;10.050;2022-07-19T06:54:01;11.23;;;5.60;;
23573;SDS011;11965;53.640;10.050;2022-07-19T06:56:26;9.15;;;5.63;;
23573;SDS011;11965;53.640;10.050;2022-07-19T06:58:52;9.30;;;6.00;;
23573;SDS011;11965;53.640;10.050;2022-07-19T07:01:17;11.73;;;5.65;;
23573;SDS011;11965;53.640;10.050;2022-07-19T07:03:44;9.27;;;5.95;;
23573;SDS011;11965;53.640;10.050;2022-07-19T07:06:10;9.77;;;5.72;;
23573;SDS011;11965;53.640;10.050;2022-07-19T07:08:36;9.02;;;5.50;;
23573;SDS011;11965;53.640;10.050;2022-07-19T07:11:01;10.40;;;5.97;;
23573;SDS011;11965;53.640;10.050;2022-07-19T07:13:27;10.27;;;6.07;;
23573;SDS011;11965;53.640;10.050;2022-07-19T07:15:53;7.38;;;5.32;;
23573;SDS011;11965;53.640;10.050;2022-07-19T07:18:19;8.38;;;5.32;;
23573;SDS011;11965;53.640;10.050;2022-07-19T07:20:44;12.25;;;5.18;;
23573;SDS011;11965;53.640;10.050;2022-07-19T07:23:10;9.45;;;5.18;;
23573;SDS011;11965;53.640;10.050;2022-07-19T07:25:36;9.05;;;5.25;;
23573;SDS011;11965;53.640;10.050;2022-07-19T07:28:01;5.97;;;4.68;;
23573;SDS011;11965;53.640;10.050;2022-07-19T07:30:27;8.75;;;4.95;;
23573;SDS011;11965;53.640;10.050;2022-07-19T07:32:52;6.75;;;4.50;;
23573;SDS011;11965;53.640;10.050;2022-07-19T07:35:18;5.78;;;4.45;;
23573;SDS011;11965;53.640;10.050;2022-07-19T07:37:44;10.18;;;5.25;;
23573;SDS011;11965;53.640;10.050;2022-07-19T07:40:10;14.52;;;4.97;;
23573;SDS011;11965;53.640;10.050;2022-07-19T07:42:36;8.68;;;5.13;;
23573;SDS011;11965;53.640;10.050;2022-07-19T07:45:02;8.90;;;4.45;;
23573;SDS011;11965;53.640;10.050;2022-07-19T07:47:28;8.93;;;4.70;;
23573;SDS011;11965;53.640;10.050;2022-07-19T07:49:54;6.90;;;4.32;;
23573;SDS011;11965;53.640;10.050;2022-07-19T07:52:20;7.63;;;4.50;;
23573;SDS011;11965;53.640;10.050;2022-07-19T07:54:46;6.10;;;4.88;;
23573;SDS011;11965;53.640;10.050;2022-07-19T07:57:13;6.20;;;4.53;;
23573;SDS011;11965;53.640;10.050;2022-07-19T07:59:39;9.38;;;4.65;;
23573;SDS011;11965;53.640;10.050;2022-07-19T08:02:04;8.60;;;4.75;;
23573;SDS011;11965;53.640;10.050;2022-07-19T08:04:30;7.00;;;4.60;;
23573;SDS011;11965;53.640;10.050;2022-07-19T08:06:55;9.27;;;4.90;;
23573;SDS011;11965;53.640;10.050;2022-07-19T08:09:21;11.48;;;4.80;;
23573;SDS011;11965;53.640;10.050;2022-07-19T08:11:47;5.88;;;4.70;;
23573;SDS011;11965;53.640;10.050;2022-07-19T08:14:13;8.75;;;4.85;;
23573;SDS011;11965;53.640;10.050;2022-07-19T08:16:39;6.13;;;4.57;;
23573;SDS011;11965;53.640;10.050;2022-07-19T08:19:04;7.72;;;4.70;;
23573;SDS011;11965;53.640;10.050;2022-07-19T08:21:30;8.68;;;4.72;;
23573;SDS011;11965;53.640;10.050;2022-07-19T08:23:57;10.55;;;4.88;;
23573;SDS011;11965;53.640;10.050;2022-07-19T08:26:22;6.65;;;4.60;;
23573;SDS011;11965;53.640;10.050;2022-07-19T08:28:49;6.05;;;5.00;;
23573;SDS011;11965;53.640;10.050;2022-07-19T08:31:16;7.53;;;4.55;;
23573;SDS011;11965;53.640;10.050;2022-07-19T08:33:42;8.00;;;4.53;;
23573;SDS011;11965;53.640;10.050;2022-07-19T08:36:08;7.22;;;4.60;;
23573;SDS011;11965;53.640;10.050;2022-07-19T08:38:36;7.95;;;4.85;;
23573;SDS011;11965;53.640;10.050;2022-07-19T08:41:03;7.20;;;4.95;;
23573;SDS011;11965;53.640;10.050;2022-07-19T08:43:30;6.13;;;4.30;;
23573;SDS011;11965;53.640;10.050;2022-07-19T08:46:04;6.53;;;4.60;;
23573;SDS011;11965;53.640;10.050;2022-07-19T08:48:31;6.35;;;4.43;;
23573;SDS011;11965;53.640;10.050;2022-07-19T08:51:01;5.45;;;4.05;;
23573;SDS011;11965;53.640;10.050;2022-07-19T08:53:30;6.82;;;4.30;;
23573;SDS011;11965;53.640;10.050;2022-07-19T08:55:58;7.28;;;4.32;;
23573;SDS011;11965;53.640;10.050;2022-07-19T08:58:25;6.68;;;4.93;;
23573;SDS011;11965;53.640;10.050;2022-07-19T09:00:50;9.85;;;5.30;;
23573;SDS011;11965;53.640;10.050;2022-07-19T09:03:16;10.73;;;5.30;;
23573;SDS011;11965;53.640;10.050;2022-07-19T09:05:42;6.78;;;4.35;;
23573;SDS011;11965;53.640;10.050;2022-07-19T09:08:14;7.50;;;4.78;;
23573;SDS011;11965;53.640;10.050;2022-07-19T09:10:45;7.95;;;4.25;;
23573;SDS011;11965;53.640;10.050;2022-07-19T09:13:31;9.30;;;5.05;;
23573;SDS011;11965;53.640;10.050;2022-07-19T09:15:57;6.10;;;4.57;;
23573;SDS011;11965;53.640;10.050;2022-07-19T09:18:23;9.70;;;6.03;;
23573;SDS011;11965;53.640;10.050;2022-07-19T09:20:52;7.18;;;5.07;;
23573;SDS011;11965;53.640;10.050;2022-07-19T09:23:22;6.95;;;4.35;;
23573;SDS011;11965;53.640;10.050;2022-07-19T09:25:49;5.72;;;4.50;;
23573;SDS011;11965;53.640;10.050;2022-07-19T09:28:18;5.75;;;4.57;;
23573;SDS011;11965;53.640;10.050;2022-07-19T09:30:45;8.82;;;4.82;;
23573;SDS011;11965;53.640;10.050;2022-07-19T09:33:19;6.05;;;4.35;;
23573;SDS011;11965;53.640;10.050;2022-07-19T09:35:48;9.60;;;4.70;;
23573;SDS011;11965;53.640;10.050;2022-07-19T09:40:46;6.80;;;4.13;;
23573;SDS011;11965;53.640;10.050;2022-07-19T09:43:13;5.28;;;4.22;;
23573;SDS011;11965;53.640;10.050;2022-07-19T09:45:39;5.00;;;3.92;;
23573;SDS011;11965;53.640;10.050;2022-07-19T09:48:05;7.93;;;4.55;;
23573;SDS011;11965;53.640;10.050;2022-07-19T09:50:31;5.95;;;4.38;;
23573;SDS011;11965;53.640;10.050;2022-07-19T09:53:04;7.20;;;4.30;;
23573;SDS011;11965;53.640;10.050;2022-07-19T09:55:31;8.20;;;4.57;;
23573;SDS011;11965;53.640;10.050;2022-07-19T09:57:58;7.97;;;4.25;;
23573;SDS011;11965;53.640;10.050;2022-07-19T10:00:27;7.07;;;4.13;;
23573;SDS011;11965;53.640;10.050;2022-07-19T10:02:53;5.95;;;4.20;;
23573;SDS011;11965;53.640;10.050;2022-07-19T10:05:22;4.93;;;3.85;;
23573;SDS011;11965;53.640;10.050;2022-07-19T10:07:50;5.10;;;4.20;;
23573;SDS011;11965;53.640;10.050;2022-07-19T10:10:16;5.25;;;3.80;;
23573;SDS011;11965;53.640;10.050;2022-07-19T10:12:44;9.20;;;4.32;;
23573;SDS011;11965;53.640;10.050;2022-07-19T10:15:12;6.40;;;3.90;;
23573;SDS011;11965;53.640;10.050;2022-07-19T10:17:47;5.68;;;4.13;;
23573;SDS011;11965;53.640;10.050;2022-07-19T10:20:23;9.50;;;4.20;;
23573;SDS011;11965;53.640;10.050;2022-07-19T10:22:52;8.13;;;4.30;;
23573;SDS011;11965;53.640;10.050;2022-07-19T10:25:18;5.80;;;3.97;;
23573;SDS011;11965;53.640;10.050;2022-07-19T10:27:46;5.43;;;3.83;;
23573;SDS011;11965;53.640;10.050;2022-07-19T10:32:40;5.22;;;3.70;;
23573;SDS011;11965;53.640;10.050;2022-07-19T10:35:14;4.35;;;3.63;;
23573;SDS011;11965;53.640;10.050;2022-07-19T10:38:05;5.15;;;3.20;;
23573;SDS011;11965;53.640;10.050;2022-07-19T10:43:14;8.18;;;3.63;;
23573;SDS011;11965;53.640;10.050;2022-07-19T10:48:34;4.97;;;3.22;;
23573;SDS011;11965;53.640;10.050;2022-07-19T10:51:02;6.93;;;2.95;;
23573;SDS011;11965;53.640;10.050;2022-07-19T10:56:15;6.30;;;3.13;;
23573;SDS011;11965;53.640;10.050;2022-07-19T11:01:16;4.72;;;2.65;;
23573;SDS011;11965;53.640;10.050;2022-07-19T11:03:44;4.82;;;3.28;;
23573;SDS011;11965;53.640;10.050;2022-07-19T11:06:18;3.72;;;2.95;;
23573;SDS011;11965;53.640;10.050;2022-07-19T11:08:55;4.70;;;3.15;;
23573;SDS011;11965;53.640;10.050;2022-07-19T11:11:23;4.00;;;3.30;;
23573;SDS011;11965;53.640;10.050;2022-07-19T11:13:55;5.47;;;3.22;;
23573;SDS011;11965;53.640;10.050;2022-07-19T11:16:26;4.50;;;3.03;;
23573;SDS011;11965;53.640;10.050;2022-07-19T11:19:02;4.95;;;2.80;;
23573;SDS011;11965;53.640;10.050;2022-07-19T11:21:32;4.60;;;2.38;;
23573;SDS011;11965;53.640;10.050;2022-07-19T11:24:00;5.38;;;3.05;;
23573;SDS011;11965;53.640;10.050;2022-07-19T11:26:27;4.70;;;3.10;;
23573;SDS011;11965;53.640;10.050;2022-07-19T11:29:03;4.55;;;2.97;;
23573;SDS011;11965;53.640;10.050;2022-07-19T11:31:28;3.33;;;2.70;;
23573;SDS011;11965;53.640;10.050;2022-07-19T11:33:55;5.53;;;2.80;;
23573;SDS011;11965;53.640;10.050;2022-07-19T11:36:25;7.80;;;3.13;;
23573;SDS011;11965;53.640;10.050;2022-07-19T11:38:56;3.60;;;2.78;;
23573;SDS011;11965;53.640;10.050;2022-07-19T11:41:30;5.40;;;2.95;;
23573;SDS011;11965;53.640;10.050;2022-07-19T11:43:58;3.97;;;2.53;;
23573;SDS011;11965;53.640;10.050;2022-07-19T11:46:24;3.47;;;2.80;;
23573;SDS011;11965;53.640;10.050;2022-07-19T11:48:59;4.43;;;2.83;;
23573;SDS011;11965;53.640;10.050;2022-07-19T11:51:26;5.13;;;2.70;;
23573;SDS011;11965;53.640;10.050;2022-07-19T11:53:53;3.33;;;2.63;;
23573;SDS011;11965;53.640;10.050;2022-07-19T11:56:21;3.70;;;2.85;;
23573;SDS011;11965;53.640;10.050;2022-07-19T11:58:50;5.25;;;2.95;;
23573;SDS011;11965;53.640;10.050;2022-07-19T12:01:27;3.35;;;2.60;;
23573;SDS011;11965;53.640;10.050;2022-07-19T12:03:54;3.42;;;2.63;;
23573;SDS011;11965;53.640;10.050;2022-07-19T12:06:38;4.55;;;2.97;;
23573;SDS011;11965;53.640;10.050;2022-07-19T12:09:11;4.72;;;2.92;;
23573;SDS011;11965;53.640;10.050;2022-07-19T12:14:23;3.60;;;2.80;;
23573;SDS011;11965;53.640;10.050;2022-07-19T12:19:35;4.22;;;3.00;;
23573;SDS011;11965;53.640;10.050;2022-07-19T12:22:00;6.00;;;3.05;;
23573;SDS011;11965;53.640;10.050;2022-07-19T12:24:26;5.18;;;2.90;;
23573;SDS011;11965;53.640;10.050;2022-07-19T12:29:22;3.60;;;2.50;;
23573;SDS011;11965;53.640;10.050;2022-07-19T12:32:35;2.97;;;2.42;;
23573;SDS011;11965;53.640;10.050;2022-07-19T12:34:58;3.50;;;2.63;;
23573;SDS011;11965;53.640;10.050;2022-07-19T12:37:34;3.22;;;2.40;;
23573;SDS011;11965;53.640;10.050;2022-07-19T12:42:36;3.55;;;2.30;;
23573;SDS011;11965;53.640;10.050;2022-07-19T12:45:02;2.92;;;2.35;;
23573;SDS011;11965;53.640;10.050;2022-07-19T12:47:29;4.00;;;2.30;;
23573;SDS011;11965;53.640;10.050;2022-07-19T12:49:54;2.17;;;1.98;;
23573;SDS011;11965;53.640;10.050;2022-07-19T12:52:20;4.25;;;2.30;;
23573;SDS011;11965;53.640;10.050;2022-07-19T12:54:45;2.47;;;1.95;;
23573;SDS011;11965;53.640;10.050;2022-07-19T12:57:11;2.60;;;2.35;;
23573;SDS011;11965;53.640;10.050;2022-07-19T12:59:37;3.05;;;2.05;;
23573;SDS011;11965;53.640;10.050;2022-07-19T13:02:05;2.75;;;2.42;;
23573;SDS011;11965;53.640;10.050;2022-07-19T13:04:43;2.25;;;2.03;;
23573;SDS011;11965;53.640;10.050;2022-07-19T13:07:10;3.53;;;2.42;;
23573;SDS011;11965;53.640;10.050;2022-07-19T13:09:39;6.50;;;2.85;;
23573;SDS011;11965;53.640;10.050;2022-07-19T13:12:05;4.18;;;2.55;;
23573;SDS011;11965;53.640;10.050;2022-07-19T13:14:33;2.95;;;2.65;;
23573;SDS011;11965;53.640;10.050;2022-07-19T13:16:59;3.92;;;2.50;;
23573;SDS011;11965;53.640;10.050;2022-07-19T13:19:24;5.45;;;2.80;;
23573;SDS011;11965;53.640;10.050;2022-07-19T13:21:51;4.15;;;2.47;;
23573;SDS011;11965;53.640;10.050;2022-07-19T13:24:17;3.28;;;2.50;;
23573;SDS011;11965;53.640;10.050;2022-07-19T13:26:44;4.65;;;2.80;;
23573;SDS011;11965;53.640;10.050;2022-07-19T13:29:09;6.68;;;2.80;;
23573;SDS011;11965;53.640;10.050;2022-07-19T13:31:36;6.35;;;3.08;;
23573;SDS011;11965;53.640;10.050;2022-07-19T13:34:02;5.93;;;2.80;;
23573;SDS011;11965;53.640;10.050;2022-07-19T13:36:28;4.63;;;2.92;;
23573;SDS011;11965;53.640;10.050;2022-07-19T13:38:54;6.30;;;2.70;;
23573;SDS011;11965;53.640;10.050;2022-07-19T13:41:19;3.35;;;2.53;;
23573;SDS011;11965;53.640;10.050;2022-07-19T13:43:45;4.32;;;3.05;;
23573;SDS011;11965;53.640;10.050;2022-07-19T13:46:12;5.00;;;2.75;;
23573;SDS011;11965;53.640;10.050;2022-07-19T13:48:39;3.10;;;2.75;;
23573;SDS011;11965;53.640;10.050;2022-07-19T13:51:05;3.95;;;2.80;;
23573;SDS011;11965;53.640;10.050;2022-07-19T13:53:32;4.38;;;3.15;;
23573;SDS011;11965;53.640;10.050;2022-07-19T13:55:57;3.53;;;2.83;;
23573;SDS011;11965;53.640;10.050;2022-07-19T13:58:23;3.60;;;2.63;;
23573;SDS011;11965;53.640;10.050;2022-07-19T14:00:48;4.63;;;2.38;;
23573;SDS011;11965;53.640;10.050;2022-07-19T14:03:14;3.28;;;2.15;;
23573;SDS011;11965;53.640;10.050;2022-07-19T14:05:43;5.97;;;2.30;;
23573;SDS011;11965;53.640;10.050;2022-07-19T14:08:09;5.13;;;2.28;;
23573;SDS011;11965;53.640;10.050;2022-07-19T14:10:36;3.45;;;2.30;;
23573;SDS011;11965;53.640;10.050;2022-07-19T14:13:02;5.85;;;2.35;;
23573;SDS011;11965;53.640;10.050;2022-07-19T14:15:28;4.50;;;2.40;;
23573;SDS011;11965;53.640;10.050;2022-07-19T14:17:54;2.95;;;2.42;;
23573;SDS011;11965;53.640;10.050;2022-07-19T14:20:19;5.13;;;2.42;;
23573;SDS011;11965;53.640;10.050;2022-07-19T14:22:45;5.30;;;2.40;;
23573;SDS011;11965;53.640;10.050;2022-07-19T14:25:10;6.05;;;2.60;;
23573;SDS011;11965;53.640;10.050;2022-07-19T14:27:36;7.07;;;2.40;;
23573;SDS011;11965;53.640;10.050;2022-07-19T14:30:02;5.43;;;2.10;;
23573;SDS011;11965;53.640;10.050;2022-07-19T14:32:28;3.40;;;2.67;;
23573;SDS011;11965;53.640;10.050;2022-07-19T14:34:53;6.57;;;2.90;;
23573;SDS011;11965;53.640;10.050;2022-07-19T14:37:18;4.60;;;2.97;;
23573;SDS011;11965;53.640;10.050;2022-07-19T14:39:44;5.47;;;2.80;;
23573;SDS011;11965;53.640;10.050;2022-07-19T14:42:09;5.80;;;2.55;;
23573;SDS011;11965;53.640;10.050;2022-07-19T14:44:35;6.43;;;2.80;;
23573;SDS011;11965;53.640;10.050;2022-07-19T14:47:00;3.00;;;2.30;;
23573;SDS011;11965;53.640;10.050;2022-07-19T14:49:26;3.85;;;2.53;;
23573;SDS011;11965;53.640;10.050;2022-07-19T14:51:52;5.00;;;2.50;;
23573;SDS011;11965;53.640;10.050;2022-07-19T14:54:18;4.28;;;2.55;;
23573;SDS011;11965;53.640;10.050;2022-07-19T14:56:43;5.10;;;3.13;;
23573;SDS011;11965;53.640;10.050;2022-07-19T14:59:09;6.05;;;2.47;;